createdAt,value
2022-08-02T00:00:41.101Z,15.57
2022-08-02T00:05:43.936Z,15.56
2022-08-02T00:10:56.075Z,15.58
2022-08-02T00:15:58.721Z,15.58
2022-08-02T00:21:01.405Z,15.57
2022-08-02T00:26:04.171Z,15.45
2022-08-02T00:31:06.889Z,15.53
2022-08-02T00:36:09.639Z,15.47
2022-08-02T00:41:18.072Z,15.52
2022-08-02T00:46:21.151Z,15.48
2022-08-02T00:51:24.002Z,15.41
2022-08-02T00:56:26.700Z,15.39
2022-08-02T01:01:55.852Z,15.27
2022-08-02T01:07:01.359Z,15.18
2022-08-02T01:12:04.089Z,15.04
2022-08-02T01:17:10.735Z,15.14
2022-08-02T01:23:02.019Z,15.08
2022-08-02T01:28:30.021Z,15.03
2022-08-02T01:33:51.888Z,15.00
2022-08-02T01:38:56.451Z,15.06
2022-08-02T01:44:01.423Z,15.14
2022-08-02T01:49:09.449Z,15.24
2022-08-02T01:54:17.269Z,16.25
2022-08-02T01:59:23.136Z,17.49
2022-08-02T02:04:29.797Z,20.63
2022-08-02T02:09:50.362Z,22.90
2022-08-02T02:14:56.212Z,24.80
2022-08-02T02:20:01.943Z,25.67
2022-08-02T02:25:07.233Z,27.14
2022-08-02T02:30:12.542Z,26.98
2022-08-02T02:35:18.251Z,29.15
2022-08-02T02:40:22.550Z,30.31
2022-08-02T02:45:26.108Z,30.35
2022-08-02T02:50:30.571Z,32.65
2022-08-02T02:55:33.459Z,34.77
2022-08-02T03:00:54.855Z,35.17
2022-08-02T03:05:58.237Z,33.07
2022-08-02T03:11:01.339Z,29.55
2022-08-02T03:16:07.414Z,27.52
2022-08-02T03:21:12.517Z,26.53
2022-08-02T03:26:16.553Z,25.62
2022-08-02T03:31:19.212Z,25.90
2022-08-02T03:36:24.309Z,25.36
2022-08-02T03:41:28.142Z,25.22
2022-08-02T03:46:32.249Z,25.59
2022-08-02T03:51:38.005Z,25.09
2022-08-02T03:56:40.827Z,24.71
2022-08-02T04:01:43.609Z,24.44
2022-08-02T04:06:46.918Z,24.25
2022-08-02T04:11:49.615Z,23.90
2022-08-02T04:17:04.714Z,23.81
2022-08-02T04:22:14.780Z,23.74
2022-08-02T04:27:50.682Z,23.42
2022-08-02T04:32:44.387Z,23.14
2022-08-02T04:38:09.345Z,23.15
2022-08-02T04:43:11.293Z,23.64
2022-08-02T04:48:13.970Z,24.17
2022-08-02T04:53:17.068Z,24.38
2022-08-02T05:03:42.617Z,24.32
2022-08-02T05:08:53.070Z,24.22
2022-08-02T05:13:58.557Z,24.19
2022-08-02T05:19:03.136Z,24.34
2022-08-02T05:24:06.765Z,24.82
2022-08-02T05:29:09.417Z,24.90
2022-08-02T05:34:12.362Z,24.81
2022-08-02T05:39:18.925Z,24.52
2022-08-02T05:44:22.048Z,24.45
2022-08-02T05:49:24.947Z,24.24
2022-08-02T05:54:39.975Z,24.42
2022-08-02T05:59:57.423Z,24.54
2022-08-02T06:05:07.200Z,24.72
2022-08-02T06:10:14.881Z,24.79
2022-08-02T06:15:19.030Z,24.73
2022-08-02T06:20:22.220Z,24.96
2022-08-02T06:25:51.212Z,24.80
2022-08-02T06:30:49.364Z,25.38
2022-08-02T06:36:21.839Z,25.48
2022-08-02T06:41:26.450Z,25.74
2022-08-02T06:47:09.530Z,26.06
2022-08-02T06:51:52.792Z,26.53
2022-08-02T06:56:55.457Z,26.96
2022-08-02T07:01:59.884Z,26.98
2022-08-02T07:07:02.662Z,27.33
2022-08-02T07:12:06.676Z,27.64
2022-08-02T07:17:09.446Z,27.58
2022-08-02T07:22:13.146Z,27.66
2022-08-02T07:27:16.555Z,27.73
2022-08-02T07:32:21.132Z,27.67
2022-08-02T07:37:51.182Z,27.78
2022-08-02T07:42:54.574Z,27.52
2022-08-02T07:47:59.467Z,27.12
2022-08-02T07:53:02.225Z,27.56
2022-08-02T07:58:05.434Z,27.98
2022-08-02T08:03:08.154Z,28.20
2022-08-02T08:08:16.710Z,27.46
2022-08-02T08:13:20.792Z,26.51
2022-08-02T08:18:23.581Z,26.47
2022-08-02T08:23:27.664Z,26.47
2022-08-02T08:28:30.314Z,27.01
2022-08-02T08:33:33.513Z,27.05
2022-08-02T08:38:36.324Z,27.76
2022-08-02T08:43:39.019Z,28.09
2022-08-02T08:48:46.277Z,28.66
2022-08-02T08:53:54.291Z,28.26
2022-08-02T08:58:57.138Z,28.62
2022-08-02T09:04:00.449Z,28.23
2022-08-02T09:09:03.209Z,28.21
2022-08-02T09:14:06.974Z,27.93
2022-08-02T09:19:20.338Z,28.19
2022-08-02T09:24:23.701Z,28.07
2022-08-02T09:29:26.672Z,28.18
2022-08-02T09:34:53.571Z,27.94
2022-08-02T09:40:00.725Z,27.25
2022-08-02T09:45:03.909Z,27.36
2022-08-02T09:50:08.369Z,27.08
2022-08-02T09:55:14.501Z,27.04
2022-08-02T10:00:23.497Z,27.16
2022-08-02T10:05:57.255Z,28.29
2022-08-02T10:11:05.069Z,28.03
2022-08-02T10:16:07.801Z,27.47
2022-08-02T10:21:26.837Z,27.58
2022-08-02T10:26:30.762Z,27.82
2022-08-02T10:31:47.538Z,28.71
2022-08-02T10:36:51.484Z,28.70
2022-08-02T10:41:54.138Z,28.53
2022-08-02T10:47:15.443Z,28.45
2022-08-02T10:52:23.234Z,28.71
2022-08-02T10:57:28.296Z,29.28
2022-08-02T11:02:44.420Z,29.33
2022-08-02T11:07:50.568Z,29.18
2022-08-02T11:13:15.488Z,28.56
2022-08-02T11:18:20.575Z,27.85
2022-08-02T11:23:44.950Z,27.53
2022-08-02T11:28:51.901Z,27.67
2022-08-02T11:33:55.206Z,27.33
2022-08-02T11:39:15.874Z,28.21
2022-08-02T11:44:19.277Z,28.63
2022-08-02T11:49:26.529Z,29.17
2022-08-02T11:54:40.907Z,29.42
2022-08-02T11:59:46.207Z,29.27
2022-08-02T12:04:59.342Z,29.23
2022-08-02T12:10:07.207Z,28.53
2022-08-02T12:15:10.216Z,27.75
2022-08-02T12:20:13.682Z,28.02
2022-08-02T12:25:33.486Z,28.13
2022-08-02T12:30:54.948Z,28.63
2022-08-02T12:35:57.711Z,29.21
2022-08-02T12:41:31.542Z,29.13
2022-08-02T12:46:41.811Z,28.97
2022-08-02T12:51:50.896Z,29.05
2022-08-02T12:57:12.425Z,28.97
2022-08-02T13:02:16.939Z,28.71
2022-08-02T13:07:20.167Z,28.86
2022-08-02T13:12:22.873Z,28.31
2022-08-02T13:17:25.630Z,28.27
2022-08-02T13:22:28.765Z,28.54
2022-08-02T13:27:32.452Z,28.80
2022-08-02T13:32:35.919Z,29.01
2022-08-02T13:37:40.320Z,29.23
2022-08-02T13:42:43.506Z,29.12
2022-08-02T13:48:03.528Z,28.89
2022-08-02T13:53:07.645Z,28.77
2022-08-02T13:58:10.655Z,28.36
2022-08-02T14:03:13.477Z,28.24
2022-08-02T14:08:18.420Z,27.87
2022-08-02T14:13:21.244Z,27.87
2022-08-02T14:18:23.877Z,27.97
2022-08-02T14:23:50.655Z,27.90
2022-08-02T14:28:51.251Z,27.88
2022-08-02T14:33:54.052Z,27.96
2022-08-02T14:38:57.153Z,28.01
2022-08-02T14:44:06.205Z,27.97
2022-08-02T14:49:10.703Z,28.04
2022-08-02T14:54:14.532Z,27.90
2022-08-02T14:59:17.419Z,27.64
2022-08-02T15:04:20.128Z,27.36
2022-08-02T15:09:22.954Z,27.30
2022-08-02T15:14:26.559Z,27.12
2022-08-02T15:19:57.776Z,26.92
2022-08-02T15:24:54.196Z,26.54
2022-08-02T15:30:00.610Z,26.36
2022-08-02T15:35:05.057Z,26.21
2022-08-02T15:40:08.437Z,26.20
2022-08-02T15:45:15.355Z,26.09
2022-08-02T15:50:19.067Z,25.96
2022-08-02T15:55:21.859Z,25.95
2022-08-02T16:00:24.583Z,25.86
2022-08-02T16:05:27.390Z,25.68
2022-08-02T16:10:30.185Z,25.53
2022-08-02T16:15:32.837Z,25.48
2022-08-02T16:20:35.643Z,25.16
2022-08-02T16:25:41.989Z,24.87
2022-08-02T16:30:59.277Z,24.68
2022-08-02T16:36:08.154Z,24.38
2022-08-02T16:41:10.975Z,24.45
2022-08-02T16:46:13.930Z,24.44
2022-08-02T16:51:16.630Z,24.45
2022-08-02T16:56:19.407Z,24.36
2022-08-02T17:01:27.026Z,24.20
2022-08-02T17:06:30.273Z,24.06
2022-08-02T17:11:32.918Z,23.79
2022-08-02T17:16:35.595Z,23.39
2022-08-02T17:21:38.976Z,22.91
2022-08-02T17:26:41.721Z,22.76
2022-08-02T17:32:05.772Z,22.44
2022-08-02T17:37:11.475Z,22.21
2022-08-02T17:42:15.391Z,21.84
2022-08-02T17:47:30.816Z,21.60
2022-08-02T17:52:50.472Z,21.35
2022-08-02T17:57:58.632Z,21.09
2022-08-02T18:03:05.420Z,20.85
2022-08-02T18:08:09.207Z,20.64
2022-08-02T18:13:11.844Z,20.28
2022-08-02T18:18:17.025Z,20.30
2022-08-02T18:23:23.350Z,20.17
2022-08-02T18:28:26.523Z,19.99
2022-08-02T18:33:56.985Z,19.88
2022-08-02T18:38:52.520Z,19.69
2022-08-02T18:43:56.093Z,19.61
2022-08-02T18:49:13.441Z,19.48
2022-08-02T18:54:26.549Z,19.39
2022-08-02T18:59:36.638Z,19.31
2022-08-02T19:04:43.707Z,19.17
2022-08-02T19:09:49.796Z,19.07
2022-08-02T19:14:52.565Z,18.92
2022-08-02T19:19:55.988Z,18.72
2022-08-02T19:25:01.282Z,18.62
2022-08-02T19:30:07.543Z,18.65
2022-08-02T19:35:19.726Z,18.60
2022-08-02T19:40:33.360Z,18.60
2022-08-02T19:45:49.639Z,18.66
2022-08-02T19:50:56.583Z,18.75
2022-08-02T19:56:04.087Z,18.70
2022-08-02T20:01:07.674Z,18.56
2022-08-02T20:06:18.140Z,18.52
2022-08-02T20:11:23.345Z,18.26
2022-08-02T20:21:55.475Z,17.99
2022-08-02T20:27:03.062Z,18.46
2022-08-02T20:38:00.089Z,18.67
2022-08-02T20:42:54.344Z,18.41
2022-08-02T20:48:00.070Z,18.48
2022-08-02T20:53:04.680Z,18.50
2022-08-02T20:58:11.814Z,18.41
2022-08-02T21:03:16.308Z,18.53
2022-08-02T21:08:22.483Z,18.62
2022-08-02T21:13:26.575Z,18.56
2022-08-02T21:18:35.900Z,18.21
2022-08-02T21:23:48.615Z,18.21
2022-08-02T21:28:51.824Z,18.18
2022-08-02T21:33:59.383Z,18.02
2022-08-02T21:39:08.943Z,17.92
2022-08-02T21:44:13.838Z,17.87
2022-08-02T21:49:20.168Z,18.00
2022-08-02T21:54:23.299Z,17.92
2022-08-02T21:59:26.870Z,17.78
2022-08-02T22:04:29.721Z,17.64
2022-08-02T22:09:44.244Z,17.65
2022-08-02T22:14:54.994Z,17.58
2022-08-02T22:19:58.173Z,17.47
2022-08-02T22:25:00.807Z,17.26
2022-08-02T22:30:07.465Z,17.19
2022-08-02T22:35:12.581Z,17.17
2022-08-02T22:40:15.316Z,17.12
2022-08-02T22:45:21.163Z,17.03
2022-08-02T22:50:26.034Z,16.89
2022-08-02T22:55:32.339Z,16.85
2022-08-02T22:58:55.199Z,18.28
2022-08-02T22:59:06.691Z,18.53
2022-08-02T23:00:35.954Z,16.74
2022-08-02T23:05:39.153Z,16.70
2022-08-02T23:10:42.950Z,16.58
2022-08-02T23:16:04.063Z,16.47
2022-08-02T23:21:06.778Z,16.56
2022-08-02T23:26:09.934Z,16.57
2022-08-02T23:31:28.984Z,16.59
2022-08-02T23:36:32.046Z,16.45
2022-08-02T23:41:34.664Z,16.35
2022-08-02T23:46:56.917Z,16.26
2022-08-02T23:52:01.901Z,16.23
2022-08-02T23:57:20.654Z,16.21
